Monterey, Indiana
Current Conditions -  °F | °C
As of 4:55 AM on Friday 28 Nov 2014 (Local Time) from KOXI Reporting Station
Overcast Overcast  
Wind Chill: -6°   Ceiling: 10000
Heat Index: -6°   Visibility: 10mi
Dew Point: -9°   Wind: 0mph
Humidity: 81%   Direction: NA
Pressure: 30.35"   Gusts: NA
Location:  41.16°N, 86.48°W
Report Text: KOXI 281055Z AUTO 00000KT 10SM OVC100 M06/M09 A3035 RMK AO1 T10631090
Loading
Personal Weather Stations






























Interactive Weather Map New forecast layout! Learn more

10-Day Weather Forecast

Advertisements
Track Severe Weather on mobile